sensor_id;sensor_type;location;lat;lon;timestamp;pressure;altitude;pressure_sealevel;temperature;humidity
15914;BME280;8055;51.930;8.840;2023-02-28T00:01:24;78757.91;;;-145.72;100.00
15914;BME280;8055;51.930;8.840;2023-02-28T00:03:50;78759.97;;;-145.72;100.00
15914;BME280;8055;51.930;8.840;2023-02-28T00:06:15;78759.97;;;-145.72;100.00
15914;BME280;8055;51.930;8.840;2023-02-28T00:08:41;78755.84;;;-145.72;100.00
15914;BME280;8055;51.930;8.840;2023-02-28T00:11:10;78751.69;;;-145.72;100.00
15914;BME280;8055;51.930;8.840;2023-02-28T00:13:37;78755.84;;;-145.72;100.00
15914;BME280;8055;51.930;8.840;2023-02-28T00:16:06;78751.69;;;-145.72;100.00
15914;BME280;8055;51.930;8.840;2023-02-28T00:18:31;78751.69;;;-145.72;100.00
15914;BME280;8055;51.930;8.840;2023-02-28T00:20:58;78751.69;;;-145.72;100.00
15914;BME280;8055;51.930;8.840;2023-02-28T00:23:23;78751.69;;;-145.72;100.00
15914;BME280;8055;51.930;8.840;2023-02-28T00:25:49;78747.56;;;-145.72;100.00
15914;BME280;8055;51.930;8.840;2023-02-28T00:28:15;78751.69;;;-145.72;100.00
15914;BME280;8055;51.930;8.840;2023-02-28T00:30:40;78747.56;;;-145.72;100.00
15914;BME280;8055;51.930;8.840;2023-02-28T00:33:06;78745.47;;;-145.72;100.00
15914;BME280;8055;51.930;8.840;2023-02-28T00:35:31;78753.75;;;-145.72;100.00
15914;BME280;8055;51.930;8.840;2023-02-28T00:37:57;78751.69;;;-145.72;100.00
15914;BME280;8055;51.930;8.840;2023-02-28T00:40:22;78753.75;;;-145.72;100.00
15914;BME280;8055;51.930;8.840;2023-02-28T00:42:47;78762.03;;;-145.72;100.00
15914;BME280;8055;51.930;8.840;2023-02-28T00:45:13;78755.84;;;-145.72;100.00
15914;BME280;8055;51.930;8.840;2023-02-28T00:47:38;78753.75;;;-145.72;100.00
15914;BME280;8055;51.930;8.840;2023-02-28T00:50:04;78755.84;;;-145.72;100.00
15914;BME280;8055;51.930;8.840;2023-02-28T00:52:30;78762.03;;;-145.72;100.00
15914;BME280;8055;51.930;8.840;2023-02-28T00:54:55;78762.03;;;-145.72;100.00
15914;BME280;8055;51.930;8.840;2023-02-28T00:57:21;78768.25;;;-145.72;100.00
15914;BME280;8055;51.930;8.840;2023-02-28T00:59:46;78772.41;;;-145.72;100.00
15914;BME280;8055;51.930;8.840;2023-02-28T01:02:12;78770.31;;;-145.72;100.00
15914;BME280;8055;51.930;8.840;2023-02-28T01:04:37;78780.69;;;-145.72;100.00
15914;BME280;8055;51.930;8.840;2023-02-28T01:07:03;78780.69;;;-145.72;100.00
15914;BME280;8055;51.930;8.840;2023-02-28T01:09:28;78784.81;;;-145.72;100.00
15914;BME280;8055;51.930;8.840;2023-02-28T01:11:54;78780.69;;;-145.72;100.00
15914;BME280;8055;51.930;8.840;2023-02-28T01:14:20;78791.03;;;-145.72;100.00
15914;BME280;8055;51.930;8.840;2023-02-28T01:16:45;78784.81;;;-145.72;100.00
15914;BME280;8055;51.930;8.840;2023-02-28T01:19:11;78797.25;;;-145.72;100.00
15914;BME280;8055;51.930;8.840;2023-02-28T01:21:36;78803.47;;;-145.72;100.00
15914;BME280;8055;51.930;8.840;2023-02-28T01:24:03;78799.31;;;-145.72;100.00
15914;BME280;8055;51.930;8.840;2023-02-28T01:26:29;78809.66;;;-145.72;100.00
15914;BME280;8055;51.930;8.840;2023-02-28T01:28:55;78811.75;;;-145.72;100.00
15914;BME280;8055;51.930;8.840;2023-02-28T01:31:22;78817.97;;;-145.72;100.00
15914;BME280;8055;51.930;8.840;2023-02-28T01:33:48;78824.16;;;-145.72;100.00
15914;BME280;8055;51.930;8.840;2023-02-28T01:36:20;78830.38;;;-145.72;100.00
15914;BME280;8055;51.930;8.840;2023-02-28T01:38:46;78830.38;;;-145.72;100.00
15914;BME280;8055;51.930;8.840;2023-02-28T01:41:23;78832.44;;;-145.72;100.00
15914;BME280;8055;51.930;8.840;2023-02-28T01:46:15;78834.53;;;-145.72;100.00
15914;BME280;8055;51.930;8.840;2023-02-28T01:48:48;78836.59;;;-145.72;100.00
15914;BME280;8055;51.930;8.840;2023-02-28T01:51:20;78842.81;;;-145.72;100.00
15914;BME280;8055;51.930;8.840;2023-02-28T01:53:53;78840.75;;;-145.72;100.00
15914;BME280;8055;51.930;8.840;2023-02-28T01:56:24;78851.09;;;-145.72;100.00
15914;BME280;8055;51.930;8.840;2023-02-28T01:58:52;78857.31;;;-145.72;100.00
15914;BME280;8055;51.930;8.840;2023-02-28T02:01:19;78857.31;;;-145.72;100.00
15914;BME280;8055;51.930;8.840;2023-02-28T02:03:55;78867.66;;;-145.72;100.00
15914;BME280;8055;51.930;8.840;2023-02-28T02:06:23;78861.44;;;-145.72;100.00
15914;BME280;8055;51.930;8.840;2023-02-28T02:08:49;78871.78;;;-145.72;100.00
15914;BME280;8055;51.930;8.840;2023-02-28T02:11:17;78873.88;;;-145.72;100.00
15914;BME280;8055;51.930;8.840;2023-02-28T02:14:32;78880.09;;;-145.72;100.00
15914;BME280;8055;51.930;8.840;2023-02-28T02:17:28;78890.44;;;-145.72;100.00
15914;BME280;8055;51.930;8.840;2023-02-28T02:20:28;78892.50;;;-145.72;100.00
15914;BME280;8055;51.930;8.840;2023-02-28T02:31:43;78902.88;;;-145.72;100.00
15914;BME280;8055;51.930;8.840;2023-02-28T02:42:20;78917.34;;;-145.72;100.00
15914;BME280;8055;51.930;8.840;2023-02-28T02:44:50;78917.34;;;-145.72;100.00
15914;BME280;8055;51.930;8.840;2023-02-28T02:47:21;78913.22;;;-145.72;100.00
15914;BME280;8055;51.930;8.840;2023-02-28T02:49:51;78931.84;;;-145.72;100.00
15914;BME280;8055;51.930;8.840;2023-02-28T02:52:21;78931.84;;;-145.72;100.00
15914;BME280;8055;51.930;8.840;2023-02-28T02:54:50;78929.78;;;-145.72;100.00
15914;BME280;8055;51.930;8.840;2023-02-28T02:57:24;78940.13;;;-145.72;100.00
15914;BME280;8055;51.930;8.840;2023-02-28T02:59:53;78954.63;;;-145.72;100.00
15914;BME280;8055;51.930;8.840;2023-02-28T03:02:22;78956.69;;;-145.72;100.00
15914;BME280;8055;51.930;8.840;2023-02-28T03:04:52;78960.84;;;-145.72;100.00
15914;BME280;8055;51.930;8.840;2023-02-28T03:07:19;78969.13;;;-145.72;100.00
15914;BME280;8055;51.930;8.840;2023-02-28T03:09:54;78977.41;;;-145.72;100.00
15914;BME280;8055;51.930;8.840;2023-02-28T03:12:23;78975.34;;;-145.72;100.00
15914;BME280;8055;51.930;8.840;2023-02-28T03:15:10;78979.47;;;-145.72;100.00
15914;BME280;8055;51.930;8.840;2023-02-28T03:17:45;78979.47;;;-145.72;100.00
15914;BME280;8055;51.930;8.840;2023-02-28T03:26:00;78987.75;;;-145.72;100.00
15914;BME280;8055;51.930;8.840;2023-02-28T03:28:41;78996.06;;;-145.72;100.00
15914;BME280;8055;51.930;8.840;2023-02-28T03:33:50;79014.69;;;-145.72;100.00
15914;BME280;8055;51.930;8.840;2023-02-28T03:36:24;79006.41;;;-145.72;100.00
15914;BME280;8055;51.930;8.840;2023-02-28T03:38:55;79018.81;;;-145.72;100.00
15914;BME280;8055;51.930;8.840;2023-02-28T03:41:35;79008.47;;;-145.72;100.00
15914;BME280;8055;51.930;8.840;2023-02-28T03:44:07;79014.69;;;-145.72;100.00
15914;BME280;8055;51.930;8.840;2023-02-28T03:46:43;79012.63;;;-145.72;100.00
15914;BME280;8055;51.930;8.840;2023-02-28T03:49:21;79014.69;;;-145.72;100.00
15914;BME280;8055;51.930;8.840;2023-02-28T03:51:50;79020.91;;;-145.72;100.00
15914;BME280;8055;51.930;8.840;2023-02-28T03:54:19;79029.19;;;-145.72;100.00
15914;BME280;8055;51.930;8.840;2023-02-28T03:59:44;79025.03;;;-145.72;100.00
15914;BME280;8055;51.930;8.840;2023-02-28T04:02:11;79035.41;;;-145.72;100.00
15914;BME280;8055;51.930;8.840;2023-02-28T04:04:36;79037.47;;;-145.72;100.00
15914;BME280;8055;51.930;8.840;2023-02-28T04:07:05;79035.41;;;-145.72;100.00
15914;BME280;8055;51.930;8.840;2023-02-28T04:09:31;79045.75;;;-145.72;100.00
15914;BME280;8055;51.930;8.840;2023-02-28T04:11:56;79039.53;;;-145.72;100.00
15914;BME280;8055;51.930;8.840;2023-02-28T04:14:22;79043.69;;;-145.72;100.00
15914;BME280;8055;51.930;8.840;2023-02-28T04:16:48;79041.59;;;-145.72;100.00
15914;BME280;8055;51.930;8.840;2023-02-28T04:19:14;79045.75;;;-145.72;100.00
15914;BME280;8055;51.930;8.840;2023-02-28T04:21:42;79043.69;;;-145.72;100.00
15914;BME280;8055;51.930;8.840;2023-02-28T04:24:10;79049.91;;;-145.72;100.00
15914;BME280;8055;51.930;8.840;2023-02-28T04:26:40;79049.91;;;-145.72;100.00
15914;BME280;8055;51.930;8.840;2023-02-28T04:29:06;79051.97;;;-145.72;100.00
15914;BME280;8055;51.930;8.840;2023-02-28T04:31:33;79049.91;;;-145.72;100.00
15914;BME280;8055;51.930;8.840;2023-02-28T04:33:59;79058.19;;;-145.72;100.00
15914;BME280;8055;51.930;8.840;2023-02-28T04:36:24;79068.53;;;-145.72;100.00
15914;BME280;8055;51.930;8.840;2023-02-28T04:38:50;79066.47;;;-145.72;100.00
15914;BME280;8055;51.930;8.840;2023-02-28T04:41:16;79066.47;;;-145.72;100.00
15914;BME280;8055;51.930;8.840;2023-02-28T04:43:42;79078.88;;;-145.72;100.00
15914;BME280;8055;51.930;8.840;2023-02-28T04:46:07;79072.69;;;-145.72;100.00
15914;BME280;8055;51.930;8.840;2023-02-28T04:48:35;79068.53;;;-145.72;100.00
15914;BME280;8055;51.930;8.840;2023-02-28T04:51:02;79078.88;;;-145.72;100.00
15914;BME280;8055;51.930;8.840;2023-02-28T04:53:28;79074.75;;;-145.72;100.00
15914;BME280;8055;51.930;8.840;2023-02-28T04:55:55;79089.25;;;-145.72;100.00
15914;BME280;8055;51.930;8.840;2023-02-28T04:58:21;79083.03;;;-145.72;100.00
15914;BME280;8055;51.930;8.840;2023-02-28T05:00:49;79085.09;;;-145.72;100.00
15914;BME280;8055;51.930;8.840;2023-02-28T05:03:15;79097.53;;;-145.72;100.00
15914;BME280;8055;51.930;8.840;2023-02-28T05:05:40;79089.25;;;-145.72;100.00
15914;BME280;8055;51.930;8.840;2023-02-28T05:08:06;79091.31;;;-145.72;100.00
15914;BME280;8055;51.930;8.840;2023-02-28T05:10:31;79091.31;;;-145.72;100.00
15914;BME280;8055;51.930;8.840;2023-02-28T05:12:57;79099.59;;;-145.72;100.00
15914;BME280;8055;51.930;8.840;2023-02-28T05:15:23;79105.81;;;-145.72;100.00
15914;BME280;8055;51.930;8.840;2023-02-28T05:17:49;79118.22;;;-145.72;100.00
15914;BME280;8055;51.930;8.840;2023-02-28T05:20:15;79103.75;;;-145.72;100.00
15914;BME280;8055;51.930;8.840;2023-02-28T05:22:41;79107.88;;;-145.72;100.00
15914;BME280;8055;51.930;8.840;2023-02-28T05:25:08;79122.38;;;-145.72;100.00
15914;BME280;8055;51.930;8.840;2023-02-28T05:27:34;79118.22;;;-145.72;100.00
15914;BME280;8055;51.930;8.840;2023-02-28T05:29:59;79116.16;;;-145.72;100.00
15914;BME280;8055;51.930;8.840;2023-02-28T05:32:27;79122.38;;;-145.72;100.00
15914;BME280;8055;51.930;8.840;2023-02-28T05:34:53;79120.31;;;-145.72;100.00
15914;BME280;8055;51.930;8.840;2023-02-28T05:37:18;79126.50;;;-145.72;100.00
15914;BME280;8055;51.930;8.840;2023-02-28T05:39:43;79126.50;;;-145.72;100.00
15914;BME280;8055;51.930;8.840;2023-02-28T05:42:09;79132.72;;;-145.72;100.00
15914;BME280;8055;51.930;8.840;2023-02-28T05:44:35;79134.81;;;-145.72;100.00
15914;BME280;8055;51.930;8.840;2023-02-28T05:47:00;79128.59;;;-145.72;100.00
15914;BME280;8055;51.930;8.840;2023-02-28T05:49:25;79132.72;;;-145.72;100.00
15914;BME280;8055;51.930;8.840;2023-02-28T05:51:51;79134.81;;;-145.72;100.00
15914;BME280;8055;51.930;8.840;2023-02-28T05:54:16;79149.31;;;-145.72;100.00
15914;BME280;8055;51.930;8.840;2023-02-28T05:56:41;79157.59;;;-145.72;100.00
15914;BME280;8055;51.930;8.840;2023-02-28T05:59:11;79147.22;;;-145.72;100.00
15914;BME280;8055;51.930;8.840;2023-02-28T06:01:42;79153.44;;;-145.72;100.00
15914;BME280;8055;51.930;8.840;2023-02-28T06:04:14;79153.44;;;-145.72;100.00
15914;BME280;8055;51.930;8.840;2023-02-28T06:06:46;79153.44;;;-145.72;100.00
15914;BME280;8055;51.930;8.840;2023-02-28T06:09:12;79165.88;;;-145.72;100.00
15914;BME280;8055;51.930;8.840;2023-02-28T06:11:38;79172.09;;;-145.72;100.00
15914;BME280;8055;51.930;8.840;2023-02-28T06:14:04;79170.00;;;-145.72;100.00
15914;BME280;8055;51.930;8.840;2023-02-28T06:16:30;79176.22;;;-145.72;100.00
15914;BME280;8055;51.930;8.840;2023-02-28T06:19:01;79172.09;;;-145.72;100.00
15914;BME280;8055;51.930;8.840;2023-02-28T06:21:27;79184.50;;;-145.72;100.00
15914;BME280;8055;51.930;8.840;2023-02-28T06:23:53;79184.50;;;-145.72;100.00
15914;BME280;8055;51.930;8.840;2023-02-28T06:26:19;79201.06;;;-145.72;100.00
15914;BME280;8055;51.930;8.840;2023-02-28T06:28:44;79190.72;;;-145.72;100.00
15914;BME280;8055;51.930;8.840;2023-02-28T06:31:12;79194.84;;;-145.72;100.00
15914;BME280;8055;51.930;8.840;2023-02-28T06:33:40;79186.56;;;-145.72;100.00
15914;BME280;8055;51.930;8.840;2023-02-28T06:36:06;79190.72;;;-145.72;100.00
15914;BME280;8055;51.930;8.840;2023-02-28T06:38:33;79184.50;;;-145.72;100.00
15914;BME280;8055;51.930;8.840;2023-02-28T06:41:00;79182.44;;;-145.72;100.00
15914;BME280;8055;51.930;8.840;2023-02-28T06:43:28;79190.72;;;-145.72;100.00
15914;BME280;8055;51.930;8.840;2023-02-28T06:45:55;79184.50;;;-145.72;100.00
15914;BME280;8055;51.930;8.840;2023-02-28T06:48:21;79178.28;;;-145.72;100.00
15914;BME280;8055;51.930;8.840;2023-02-28T06:50:46;79184.50;;;-145.72;100.00
15914;BME280;8055;51.930;8.840;2023-02-28T06:53:12;79178.28;;;-145.72;100.00
15914;BME280;8055;51.930;8.840;2023-02-28T06:55:38;79190.72;;;-145.72;100.00
15914;BME280;8055;51.930;8.840;2023-02-28T06:58:04;79176.22;;;-145.72;100.00
15914;BME280;8055;51.930;8.840;2023-02-28T07:00:40;79178.28;;;-145.72;100.00
15914;BME280;8055;51.930;8.840;2023-02-28T07:03:06;79176.22;;;-145.72;100.00
15914;BME280;8055;51.930;8.840;2023-02-28T07:05:31;79176.22;;;-145.72;100.00
15914;BME280;8055;51.930;8.840;2023-02-28T07:07:57;79167.94;;;-145.72;100.00
15914;BME280;8055;51.930;8.840;2023-02-28T07:10:22;79165.88;;;-145.72;100.00
15914;BME280;8055;51.930;8.840;2023-02-28T07:12:47;79155.50;;;-145.72;100.00
15914;BME280;8055;51.930;8.840;2023-02-28T07:15:13;79153.44;;;-145.72;100.00
15914;BME280;8055;51.930;8.840;2023-02-28T07:17:38;79132.72;;;-145.72;100.00
15914;BME280;8055;51.930;8.840;2023-02-28T07:20:04;79118.22;;;-145.72;100.00
15914;BME280;8055;51.930;8.840;2023-02-28T07:22:30;79101.66;;;-145.72;100.00
15914;BME280;8055;51.930;8.840;2023-02-28T07:24:55;79085.09;;;-145.72;100.00
15914;BME280;8055;51.930;8.840;2023-02-28T07:27:20;79070.59;;;-145.72;100.00
15914;BME280;8055;51.930;8.840;2023-02-28T07:29:51;79062.31;;;-145.72;100.00
15914;BME280;8055;51.930;8.840;2023-02-28T07:32:17;79056.09;;;-145.72;100.00
15914;BME280;8055;51.930;8.840;2023-02-28T07:34:43;79047.81;;;-145.72;100.00
15914;BME280;8055;51.930;8.840;2023-02-28T07:37:09;79037.47;;;-145.72;100.00
15914;BME280;8055;51.930;8.840;2023-02-28T07:39:34;79027.13;;;-145.72;100.00
15914;BME280;8055;51.930;8.840;2023-02-28T07:42:00;79025.03;;;-145.72;100.00
15914;BME280;8055;51.930;8.840;2023-02-28T07:44:27;79016.75;;;-145.72;100.00
15914;BME280;8055;51.930;8.840;2023-02-28T07:46:52;79008.47;;;-145.72;100.00
15914;BME280;8055;51.930;8.840;2023-02-28T07:49:18;79004.34;;;-145.72;100.00
15914;BME280;8055;51.930;8.840;2023-02-28T07:51:43;79000.19;;;-145.72;100.00
15914;BME280;8055;51.930;8.840;2023-02-28T07:54:08;78993.97;;;-145.72;100.00
15914;BME280;8055;51.930;8.840;2023-02-28T07:56:34;78981.56;;;-145.72;100.00
15914;BME280;8055;51.930;8.840;2023-02-28T07:58:59;78977.41;;;-145.72;100.00
15914;BME280;8055;51.930;8.840;2023-02-28T08:01:26;78962.91;;;-145.72;100.00
15914;BME280;8055;51.930;8.840;2023-02-28T08:03:52;78950.50;;;-145.72;100.00
15914;BME280;8055;51.930;8.840;2023-02-28T08:06:21;78944.28;;;-145.72;100.00
15914;BME280;8055;51.930;8.840;2023-02-28T08:08:47;78933.91;;;-145.72;100.00
15914;BME280;8055;51.930;8.840;2023-02-28T08:11:13;78927.72;;;-145.72;100.00
15914;BME280;8055;51.930;8.840;2023-02-28T08:13:38;78913.22;;;-145.72;100.00
15914;BME280;8055;51.930;8.840;2023-02-28T08:16:04;78909.06;;;-145.72;100.00
15914;BME280;8055;51.930;8.840;2023-02-28T08:18:29;78900.78;;;-145.72;100.00
15914;BME280;8055;51.930;8.840;2023-02-28T08:20:54;78898.72;;;-145.72;100.00
15914;BME280;8055;51.930;8.840;2023-02-28T08:23:20;78892.50;;;-145.72;100.00
15914;BME280;8055;51.930;8.840;2023-02-28T08:25:53;78880.09;;;-145.72;100.00
15914;BME280;8055;51.930;8.840;2023-02-28T08:28:19;78873.88;;;-145.72;100.00
15914;BME280;8055;51.930;8.840;2023-02-28T08:30:44;78863.50;;;-145.72;100.00
15914;BME280;8055;51.930;8.840;2023-02-28T08:33:09;78861.44;;;-145.72;100.00
15914;BME280;8055;51.930;8.840;2023-02-28T08:35:36;78851.09;;;-145.72;100.00
15914;BME280;8055;51.930;8.840;2023-02-28T08:38:02;78838.66;;;-145.72;100.00
15914;BME280;8055;51.930;8.840;2023-02-28T08:40:27;78824.16;;;-145.72;100.00
15914;BME280;8055;51.930;8.840;2023-02-28T08:42:52;78813.81;;;-145.72;100.00
15914;BME280;8055;51.930;8.840;2023-02-28T08:45:18;78799.31;;;-145.72;100.00
15914;BME280;8055;51.930;8.840;2023-02-28T08:47:43;78784.81;;;-145.72;100.00
15914;BME280;8055;51.930;8.840;2023-02-28T08:50:09;78768.25;;;-145.72;100.00
15914;BME280;8055;51.930;8.840;2023-02-28T08:52:35;78757.91;;;-145.72;100.00
15914;BME280;8055;51.930;8.840;2023-02-28T08:55:00;78737.19;;;-145.72;100.00
15914;BME280;8055;51.930;8.840;2023-02-28T08:57:25;78722.69;;;-145.72;100.00
15914;BME280;8055;51.930;8.840;2023-02-28T08:59:51;78710.28;;;-145.72;100.00
15914;BME280;8055;51.930;8.840;2023-02-28T09:02:17;78695.78;;;-145.72;100.00
15914;BME280;8055;51.930;8.840;2023-02-28T09:04:43;78683.34;;;-145.72;100.00
15914;BME280;8055;51.930;8.840;2023-02-28T09:07:10;78666.78;;;-145.72;100.00
15914;BME280;8055;51.930;8.840;2023-02-28T09:09:36;78648.16;;;-145.72;100.00
15914;BME280;8055;51.930;8.840;2023-02-28T09:12:01;78639.88;;;-145.72;100.00
15914;BME280;8055;51.930;8.840;2023-02-28T09:14:27;78629.53;;;-145.72;100.00
15914;BME280;8055;51.930;8.840;2023-02-28T09:16:52;78623.31;;;-145.72;100.00
15914;BME280;8055;51.930;8.840;2023-02-28T09:19:18;78604.66;;;-145.72;100.00
15914;BME280;8055;51.930;8.840;2023-02-28T09:21:43;78598.47;;;-145.72;100.00
15914;BME280;8055;51.930;8.840;2023-02-28T09:24:09;78586.03;;;-145.72;100.00
15914;BME280;8055;51.930;8.840;2023-02-28T09:26:37;78573.59;;;-145.72;100.00
15914;BME280;8055;51.930;8.840;2023-02-28T09:29:02;78569.47;;;-145.72;100.00
15914;BME280;8055;51.930;8.840;2023-02-28T09:31:29;78565.31;;;-145.72;100.00
15914;BME280;8055;51.930;8.840;2023-02-28T09:33:56;78559.13;;;-145.72;100.00
15914;BME280;8055;51.930;8.840;2023-02-28T09:36:23;78552.91;;;-145.72;100.00
15914;BME280;8055;51.930;8.840;2023-02-28T09:38:49;78548.75;;;-145.72;100.00
15914;BME280;8055;51.930;8.840;2023-02-28T09:41:21;78536.34;;;-145.72;100.00
15914;BME280;8055;51.930;8.840;2023-02-28T09:43:50;78523.91;;;-145.72;100.00
15914;BME280;8055;51.930;8.840;2023-02-28T09:46:33;78517.69;;;-145.72;100.00
15914;BME280;8055;51.930;8.840;2023-02-28T09:49:06;78511.50;;;-145.72;100.00
15914;BME280;8055;51.930;8.840;2023-02-28T09:51:59;78503.22;;;-145.72;100.00
15914;BME280;8055;51.930;8.840;2023-02-28T09:54:28;78486.63;;;-145.72;100.00
15914;BME280;8055;51.930;8.840;2023-02-28T09:57:01;78484.56;;;-145.72;100.00
15914;BME280;8055;51.930;8.840;2023-02-28T10:05:51;78441.09;;;-145.72;100.00
15914;BME280;8055;51.930;8.840;2023-02-28T10:08:27;78430.72;;;-145.72;100.00
15914;BME280;8055;51.930;8.840;2023-02-28T10:11:00;78422.44;;;-145.72;100.00
15914;BME280;8055;51.930;8.840;2023-02-28T10:13:35;78405.88;;;-145.72;100.00
15914;BME280;8055;51.930;8.840;2023-02-28T10:16:06;78397.59;;;-145.72;100.00
15914;BME280;8055;51.930;8.840;2023-02-28T10:18:54;78376.91;;;-145.72;100.00
15914;BME280;8055;51.930;8.840;2023-02-28T10:21:31;78372.75;;;-145.72;100.00
15914;BME280;8055;51.930;8.840;2023-02-28T10:24:19;78358.25;;;-145.72;100.00
15914;BME280;8055;51.930;8.840;2023-02-28T10:26:47;78352.06;;;-145.72;100.00
15914;BME280;8055;51.930;8.840;2023-02-28T10:29:13;78337.56;;;-145.72;100.00
15914;BME280;8055;51.930;8.840;2023-02-28T10:31:39;78337.56;;;-145.72;100.00
15914;BME280;8055;51.930;8.840;2023-02-28T10:34:04;78331.34;;;-145.72;100.00
15914;BME280;8055;51.930;8.840;2023-02-28T10:36:31;78323.06;;;-145.72;100.00
15914;BME280;8055;51.930;8.840;2023-02-28T10:38:57;78329.28;;;-145.72;100.00
15914;BME280;8055;51.930;8.840;2023-02-28T10:41:30;78325.13;;;-145.72;100.00
15914;BME280;8055;51.930;8.840;2023-02-28T10:44:22;78323.06;;;-145.72;100.00
15914;BME280;8055;51.930;8.840;2023-02-28T10:46:49;78323.06;;;-145.72;100.00
15914;BME280;8055;51.930;8.840;2023-02-28T10:49:28;78310.63;;;-145.72;100.00
15914;BME280;8055;51.930;8.840;2023-02-28T10:52:00;78302.34;;;-145.72;100.00
15914;BME280;8055;51.930;8.840;2023-02-28T10:54:31;78292.00;;;-145.72;100.00
15914;BME280;8055;51.930;8.840;2023-02-28T10:57:06;78281.66;;;-145.72;100.00
15914;BME280;8055;51.930;8.840;2023-02-28T10:59:32;78275.44;;;-145.72;100.00
15914;BME280;8055;51.930;8.840;2023-02-28T11:01:57;78263.03;;;-145.72;100.00
15914;BME280;8055;51.930;8.840;2023-02-28T11:07:02;78236.09;;;-145.72;100.00
15914;BME280;8055;51.930;8.840;2023-02-28T11:09:36;78225.75;;;-145.72;100.00
15914;BME280;8055;51.930;8.840;2023-02-28T11:12:06;78213.31;;;-145.72;100.00
15914;BME280;8055;51.930;8.840;2023-02-28T11:14:37;78200.91;;;-145.72;100.00
15914;BME280;8055;51.930;8.840;2023-02-28T11:17:20;78198.84;;;-145.72;100.00
15914;BME280;8055;51.930;8.840;2023-02-28T11:19:48;78169.84;;;-145.72;100.00
15914;BME280;8055;51.930;8.840;2023-02-28T11:22:24;78174.00;;;-145.72;100.00
15914;BME280;8055;51.930;8.840;2023-02-28T11:24:55;78163.63;;;-145.72;100.00
15914;BME280;8055;51.930;8.840;2023-02-28T11:29:59;78159.50;;;-145.72;100.00
15914;BME280;8055;51.930;8.840;2023-02-28T11:32:27;78147.06;;;-145.72;100.00
15914;BME280;8055;51.930;8.840;2023-02-28T11:35:17;78101.53;;;-145.72;100.00
15914;BME280;8055;51.930;8.840;2023-02-28T11:37:47;78095.31;;;-145.72;100.00
15914;BME280;8055;51.930;8.840;2023-02-28T11:40:18;78076.69;;;-145.72;100.00
15914;BME280;8055;51.930;8.840;2023-02-28T11:45:43;78043.56;;;-145.72;100.00
15914;BME280;8055;51.930;8.840;2023-02-28T11:48:27;78027.00;;;-145.72;100.00
15914;BME280;8055;51.930;8.840;2023-02-28T11:51:40;78016.63;;;-145.72;100.00
15914;BME280;8055;51.930;8.840;2023-02-28T11:56:55;77998.00;;;-145.72;100.00
15914;BME280;8055;51.930;8.840;2023-02-28T11:59:42;77975.22;;;-145.72;100.00
15914;BME280;8055;51.930;8.840;2023-02-28T12:02:30;77998.00;;;-145.72;100.00
15914;BME280;8055;51.930;8.840;2023-02-28T12:05:24;78012.50;;;-145.72;97.45
15914;BME280;8055;51.930;8.840;2023-02-28T12:10:53;78010.44;;;-145.72;90.28
15914;BME280;8055;51.930;8.840;2023-02-28T12:13:26;77991.78;;;-145.72;94.48
15914;BME280;8055;51.930;8.840;2023-02-28T12:26:50;77894.47;;;-145.72;89.41
15914;BME280;8055;51.930;8.840;2023-02-28T12:29:21;77886.19;;;-145.72;84.78
15914;BME280;8055;51.930;8.840;2023-02-28T12:31:49;77894.47;;;-145.72;85.72
15914;BME280;8055;51.930;8.840;2023-02-28T12:34:21;77882.06;;;-145.72;87.70
15914;BME280;8055;51.930;8.840;2023-02-28T12:36:49;77880.00;;;-145.72;86.67
15914;BME280;8055;51.930;8.840;2023-02-28T12:39:23;77844.78;;;-145.72;86.31
15914;BME280;8055;51.930;8.840;2023-02-28T12:41:54;77819.94;;;-145.72;88.52
15914;BME280;8055;51.930;8.840;2023-02-28T12:44:30;77805.47;;;-145.72;87.36
15914;BME280;8055;51.930;8.840;2023-02-28T12:47:03;77801.31;;;-145.72;83.63
15914;BME280;8055;51.930;8.840;2023-02-28T12:49:34;77784.75;;;-145.72;83.59
15914;BME280;8055;51.930;8.840;2023-02-28T12:52:03;77786.81;;;-145.72;84.67
15914;BME280;8055;51.930;8.840;2023-02-28T12:54:35;77759.91;;;-145.72;84.84
15914;BME280;8055;51.930;8.840;2023-02-28T12:57:12;77751.63;;;-145.72;80.29
15914;BME280;8055;51.930;8.840;2023-02-28T12:59:54;77726.78;;;-145.72;81.96
15914;BME280;8055;51.930;8.840;2023-02-28T13:10:45;77677.09;;;-145.72;78.96
15914;BME280;8055;51.930;8.840;2023-02-28T13:13:16;77652.25;;;-145.72;79.58
15914;BME280;8055;51.930;8.840;2023-02-28T13:16:06;77650.19;;;-145.72;74.05
15914;BME280;8055;51.930;8.840;2023-02-28T13:18:46;77641.91;;;-145.72;75.24
15914;BME280;8055;51.930;8.840;2023-02-28T13:21:26;77654.34;;;-145.72;76.52
15914;BME280;8055;51.930;8.840;2023-02-28T13:23:58;77666.75;;;-145.72;76.58
15914;BME280;8055;51.930;8.840;2023-02-28T13:39:55;77664.69;;;-145.72;72.56
15914;BME280;8055;51.930;8.840;2023-02-28T13:42:56;77664.69;;;-145.72;76.06
15914;BME280;8055;51.930;8.840;2023-02-28T13:45:27;77670.91;;;-145.72;75.06
15914;BME280;8055;51.930;8.840;2023-02-28T14:01:31;77813.75;;;-145.72;79.99
15914;BME280;8055;51.930;8.840;2023-02-28T14:04:29;77822.03;;;-145.72;83.21
15914;BME280;8055;51.930;8.840;2023-02-28T14:07:03;77828.22;;;-145.72;82.41
15914;BME280;8055;51.930;8.840;2023-02-28T14:09:36;77842.72;;;-145.72;83.07
15914;BME280;8055;51.930;8.840;2023-02-28T14:18:22;77848.94;;;-145.72;91.08
15914;BME280;8055;51.930;8.840;2023-02-28T14:20:53;77857.22;;;-145.72;85.96
15914;BME280;8055;51.930;8.840;2023-02-28T14:23:49;77861.34;;;-145.72;83.63
15914;BME280;8055;51.930;8.840;2023-02-28T14:29:22;77871.72;;;-145.72;80.84
15914;BME280;8055;51.930;8.840;2023-02-28T14:32:02;77873.78;;;-145.72;81.57
15914;BME280;8055;51.930;8.840;2023-02-28T14:37:11;77894.47;;;-145.72;81.86
15914;BME280;8055;51.930;8.840;2023-02-28T14:39:41;77898.63;;;-145.72;84.27
15914;BME280;8055;51.930;8.840;2023-02-28T14:42:31;77898.63;;;-145.72;87.27